Home > Products > Valid Products > MTR

000
SAUS45 KTWC 210209
MTRSAD
SPECI KSAD 210208Z AUTO 10005KT 10SM CLR 28/19 A2994 RMK AO2 LTG
DSNT N-E RAE0153 P0000 T02780189





000
SAUS45 KTWC 210152
MTRSAD
METAR KSAD 210151Z AUTO 00000KT 10SM VCTS -RA FEW060 27/19 A2993 RMK
AO2 LTG DSNT N-E RAB11 TSB01E16 SLP087 P0000 T02720194





000
SAUS45 KTWC 210123
MTRSAD
SPECI KSAD 210122Z AUTO 14005KT 8SM VCTS -RA FEW042 FEW080 BKN100
28/18 A2992 RMK AO2 LTG DSNT N AND E RAB11 TSB01E16 P0000 T02780178





000
SAUS45 KTWC 210108
MTRSAD
SPECI KSAD 210107Z AUTO 21008KT 10SM TS FEW070 30/16 A2992 RMK AO2
LTG DSNT N AND E TSB01 T03000161





000
SAUS45 KTWC 210100
MTRSAD
SPECI KSAD 210059Z AUTO 29006KT 10SM FEW065 31/16 A2992 RMK AO2 LTG
DSNT N T03110161





000
SAUS45 KTWC 210052
MTRSAD
METAR KSAD 210051Z AUTO 30009KT 10SM VCTS CLR 31/16 A2991 RMK AO2
LTG DSNT N AND E SLP074 T03110161





000
SAUS45 KTWC 210032
MTRSAD
SPECI KSAD 210030Z AUTO 30009KT 10SM VCTS CLR 32/17 A2990 RMK AO2
T03170167





000
SAUS45 KTWC 202353
MTRSAD
METAR KSAD 202351Z AUTO 29006KT 10SM CLR 32/17 A2991 RMK AO2 SLP074
T03220167 10328 20283 55007





000
SAUS45 KTWC 202253
MTRSAD
METAR KSAD 202251Z AUTO 21006KT 10SM CLR 32/17 A2990 RMK AO2 SLP073
T03170167





000
SAUS45 KTWC 202153
MTRSAD
METAR KSAD 202151Z AUTO 21006KT 10SM CLR 32/16 A2992 RMK AO2 SLP077
T03220156





000
SAUS45 KTWC 202053
MTRSAD
METAR KSAD 202051Z AUTO VRB06KT 10SM CLR 32/16 A2993 RMK AO2 SLP080
T03220156 58022





000
SAUS45 KTWC 201953
MTRSAD
METAR KSAD 201951Z AUTO VRB03KT 10SM CLR 31/17 A2996 RMK AO2 SLP092
T03110167





000
SAUS45 KTWC 201852
MTRSAD
METAR KSAD 201851Z AUTO 00000KT 10SM CLR 30/17 A2999 RMK AO2 SLP101
T03000167





000
SAUS45 KTWC 201752
MTRSAD
METAR KSAD 201751Z AUTO 21003KT 10SM CLR 29/17 A3000 RMK AO2 SLP107
T02890172 10289 20200 58001





000
SAUS45 KTWC 201652
MTRSAD
METAR KSAD 201651Z AUTO 00000KT 10SM CLR 27/17 A3002 RMK AO2 SLP111
T02720167





000
SAUS45 KTWC 201552
MTRSAD
METAR KSAD 201551Z AUTO 07003KT 10SM CLR 26/17 A3002 RMK AO2 SLP112
T02610167





000
SAUS45 KTWC 201452
MTRSAD
METAR KSAD 201451Z AUTO 00000KT 10SM CLR 23/19 A3001 RMK AO2 SLP112
T02280189 51015





000
SAUS45 KTWC 201352
MTRSAD
METAR KSAD 201351Z AUTO 04003KT 10SM CLR 21/19 A3000 RMK AO2 SLP109
T02110189





000
SAUS45 KTWC 201252
MTRSAD
METAR KSAD 201251Z AUTO 21003KT 10SM CLR 21/19 A2998 RMK AO2 SLP100
T02060189





000
SAUS45 KTWC 201153
MTRSAD
METAR KSAD 201151Z AUTO 00000KT 10SM CLR 21/19 A2996 RMK AO2 SLP093
T02110189 10244 20206 53004





000
SAUS45 KTWC 201053
MTRSAD
METAR KSAD 201051Z AUTO 11004KT 10SM FEW070 21/19 A2995 RMK AO2
SLP091 T02110189





000
SAUS45 KTWC 200953
MTRSAD
METAR KSAD 200951Z AUTO 12005KT 10SM CLR 21/19 A2995 RMK AO2 SLP090
T02110189





000
SAUS45 KTWC 200853
MTRSAD
METAR KSAD 200851Z AUTO 15004KT 10SM CLR 22/20 A2995 RMK AO2 SLP089
T02220200 50004





000
SAUS45 KTWC 200752
MTRSAD
METAR KSAD 200751Z AUTO 00000KT 10SM CLR 23/20 A2995 RMK AO2 SLP089
T02280200





000
SAUS45 KTWC 200653
MTRSAD
METAR KSAD 200651Z AUTO 00000KT 10SM CLR 24/19 A2994 RMK AO2 SLP088
T02390194 403110206





000
SAUS45 KTWC 200553
MTRSAD
METAR KSAD 200551Z AUTO 00000KT 10SM CLR 24/19 A2994 RMK AO2 SLP086
T02440194 10311 20244 51014





000
SAUS45 KTWC 200452
MTRSAD
METAR KSAD 200451Z AUTO 30005KT 10SM CLR 26/19 A2992 RMK AO2 SLP083
T02560189





000
SAUS45 KTWC 200352
MTRSAD
METAR KSAD 200351Z AUTO 32007KT 10SM CLR 26/19 A2991 RMK AO2 SLP080
T02610189





000
SAUS45 KTWC 200252
MTRSAD
METAR KSAD 200251Z AUTO 27005KT 10SM CLR 27/19 A2989 RMK AO2 SLP074
T02670189 53011





000
SAUS45 KTWC 200152
MTRSAD
METAR KSAD 200151Z AUTO 20003KT 10SM BKN110 29/18 A2987 RMK AO2
SLP065 T02890178





000
SAUS45 KTWC 200052
MTRSAD
METAR KSAD 200051Z AUTO 28003KT 10SM FEW110 30/16 A2986 RMK AO2
SLP060 T03000156





000
SAUS45 KTWC 192352
MTRSAD
METAR KSAD 192351Z AUTO 34003KT 10SM CLR 31/16 A2985 RMK AO2 SLP056
T03110161 10311 20256 56012





000
SAUS45 KTWC 192252
MTRSAD
METAR KSAD 192251Z AUTO 26006KT 10SM CLR 31/17 A2986 RMK AO2 LTG
DSNT N AND NE SLP059 T03060167





000
SAUS45 KTWC 192152
MTRSAD
METAR KSAD 192151Z AUTO 00000KT 10SM CLR 30/16 A2987 RMK AO2 SLP064
T03000161





000
SAUS45 KTWC 192052
MTRSAD
METAR KSAD 192051Z AUTO VRB06KT 10SM CLR 30/17 A2989 RMK AO2 SLP070
T03000172 58021





000
SAUS45 KTWC 191952
MTRSAD
METAR KSAD 191951Z AUTO VRB05KT 10SM FEW042 29/17 A2992 RMK AO2
SLP081 T02890172





000
SAUS45 KTWC 191853
MTRSAD
METAR KSAD 191851Z AUTO 10SM FEW032 28/17 A2994 RMK AO2 SLP089
T02780172





000
SAUS45 KTWC 191753
MTRSAD
METAR KSAD 191751Z AUTO VRB03KT 10SM CLR 26/18 A2996 RMK AO2 SLP098
T02610178 10267 20206 58000





000
SAUS45 KTWC 191652
MTRSAD
METAR KSAD 191651Z AUTO 23003KT 10SM FEW050 24/18 A2997 RMK AO2
SLP103 T02440183





000
SAUS45 KTWC 191552
MTRSAD
METAR KSAD 191551Z AUTO 20004KT 10SM FEW035 BKN050 OVC090 23/19
A2998 RMK AO2 SLP106 T02280189





000
SAUS45 KTWC 191452
MTRSAD
METAR KSAD 191451Z AUTO 13003KT 10SM BKN055 OVC070 21/19 A2996 RMK
AO2 SLP102 T02110189 53014





000
SAUS45 KTWC 191352
MTRSAD
METAR KSAD 191351Z AUTO 00000KT 10SM BKN055 BKN075 OVC090 21/19
A2995 RMK AO2 SLP097 T02060189





000
SAUS45 KTWC 191253
MTRSAD
METAR KSAD 191251Z AUTO 00000KT 10SM BKN070 OVC085 21/19 A2992 RMK
AO2 SLP088 T02060194





000
SAUS45 KTWC 191153
MTRSAD
METAR KSAD 191151Z AUTO 10003KT 10SM BKN060 OVC080 21/19 A2991 RMK
AO2 SLP085 T02060194 10217 20206 53001





000
SAUS45 KTWC 191053
MTRSAD
METAR KSAD 191051Z AUTO 09003KT 10SM SCT065 BKN085 21/19 A2991 RMK
AO2 SLP082 T02060189





000
SAUS45 KTWC 190953
MTRSAD
METAR KSAD 190951Z AUTO 08004KT 10SM BKN050 21/19 A2991 RMK AO2
SLP084 T02060189





000
SAUS45 KTWC 190853
MTRSAD
METAR KSAD 190851Z AUTO 12004KT 10SM CLR 21/19 A2991 RMK AO2 SLP085
T02060189 58003





000
SAUS45 KTWC 190752
MTRSAD
METAR KSAD 190751Z AUTO 17004KT 10SM CLR 21/19 A2992 RMK AO2 SLP089
T02110189





000
SAUS45 KTWC 190652
MTRSAD
METAR KSAD 190651Z AUTO 10004KT 10SM CLR 21/19 A2992 RMK AO2 SLP089
T02110189 402560183





000
SAUS45 KTWC 190552
MTRSAD
METAR KSAD 190551Z AUTO 09004KT 10SM BKN110 22/19 A2992 RMK AO2
SLP090 T02170194 10256 20217 51009





000
SAUS45 KTWC 190452
MTRSAD
METAR KSAD 190451Z AUTO 00000KT 10SM OVC120 22/19 A2992 RMK AO2
SLP090 T02220194





000
SAUS45 KTWC 190352
MTRSAD
METAR KSAD 190351Z AUTO 10003KT 10SM SCT110 22/20 A2991 RMK AO2
SLP088 T02220200





000
SAUS45 KTWC 190252
MTRSAD
METAR KSAD 190251Z AUTO 17003KT 10SM OVC110 23/19 A2989 RMK AO2
SLP081 T02280189 53010





000
SAUS45 KTWC 190153
MTRSAD
METAR KSAD 190151Z AUTO 18004KT 10SM OVC080 24/18 A2988 RMK AO2
SLP074 T02390183





000
SAUS45 KTWC 190053
MTRSAD
METAR KSAD 190051Z AUTO 18004KT 10SM OVC075 24/18 A2987 RMK AO2
SLP071 T02440178





000
SAUS45 KTWC 182353
MTRSAD
METAR KSAD 182351Z AUTO VRB03KT 10SM CLR 25/18 A2986 RMK AO2 SLP068
T02500178 10256 20211 56009





000
SAUS45 KTWC 182252
MTRSAD
METAR KSAD 182251Z AUTO 00000KT 10SM OVC060 24/18 A2986 RMK AO2
SLP070 T02440178





000
SAUS45 KTWC 182152
MTRSAD
METAR KSAD 182151Z AUTO 07003KT 10SM OVC055 24/17 A2987 RMK AO2
SLP073 T02440172





000
SAUS45 KTWC 182053
MTRSAD
METAR KSAD 182051Z AUTO 07003KT 10SM SCT045 OVC050 24/17 A2989 RMK
AO2 SLP080 T02390172 58013





000
SAUS45 KTWC 181952
MTRSAD
METAR KSAD 181951Z AUTO 08006KT 10SM FEW019 OVC046 22/18 A2991 RMK
AO2 SLP089 T02220178





000
SAUS45 KTWC 181852
MTRSAD
METAR KSAD 181851Z AUTO 09009KT 10SM OVC046 22/18 A2992 RMK AO2 PK
WND 21034/1807 SLP091 T02220178





000
SAUS45 KTWC 181810
MTRSAD
SPECI KSAD 181809Z AUTO 7SM FEW015 SCT028 OVC049 22/18 A2993 RMK AO2
PK WND 21034/1807 T02170183





000
SAUS45 KTWC 181753
MTRSAD
METAR KSAD 181751Z AUTO 12006KT 9SM FEW015 BKN028 OVC047 22/18 A2993
RMK AO2 SLP093 60000 T02170178 10222 20189 50005





000
SAUS45 KTWC 181652
MTRSAD
METAR KSAD 181651Z AUTO 10SM FEW013 BKN031 OVC038 21/18 A2994 RMK
AO2 PK WND 21026/1558 SLP098 T02060178





000
SAUS45 KTWC 181552
MTRSAD
METAR KSAD 181551Z AUTO 10SM BKN036 OVC045 20/18 A2992 RMK AO2
SLP092 T02000178





000
SAUS45 KTWC 181452
MTRSAD
METAR KSAD 181451Z AUTO 15006KT 10SM BKN039 OVC050 19/18 A2992 RMK
AO2 SLP092 60000 T01890178 51008





000
SAUS45 KTWC 181352
MTRSAD
METAR KSAD 181351Z AUTO 13004KT 10SM OVC041 19/18 A2991 RMK AO2
SLP089 T01890178





000
SAUS45 KTWC 181252
MTRSAD
METAR KSAD 181251Z AUTO 15006KT 10SM OVC040 19/18 A2990 RMK AO2
RAE09 SLP085 P0000 T01890178





000
SAUS45 KTWC 181153
MTRSAD
METAR KSAD 181151Z AUTO 16007KT 10SM -RA OVC040 19/18 A2989 RMK AO2
SLP083 P0001 60007 70107 T01890178 10211 20183 55009





000
SAUS45 KTWC 181052
MTRSAD
METAR KSAD 181051Z AUTO 15008KT 10SM -RA OVC040 18/17 A2989 RMK AO2
SLP083 P0001 T01830172





000
SAUS45 KTWC 180952
MTRSAD
METAR KSAD 180951Z AUTO 15008KT 10SM -RA FEW007 BKN050 OVC070 18/17
A2990 RMK AO2 SLP082 P0000 T01830172





000
SAUS45 KTWC 180933
MTRSAD
SPECI KSAD 180931Z AUTO 15008KT 10SM -RA FEW004 SCT044 OVC055 18/18
A2991 RMK AO2 P0000 T01830178





000
SAUS45 KTWC 180852
MTRSAD
METAR KSAD 180851Z AUTO 15007KT 4SM -RA BR SCT028 BKN033 OVC050
18/18 A2992 RMK AO2 SLP089 P0004 60005 T01830178 58002





000
SAUS45 KTWC 180840
MTRSAD
SPECI KSAD 180839Z AUTO 15007KT 3SM -RA BR BKN028 BKN033 OVC043
18/18 A2992 RMK AO2 P0003 T01830178





000
SAUS45 KTWC 180834
MTRSAD
SPECI KSAD 180833Z AUTO 14006KT 2 1/2SM -RA BR FEW025 SCT030 OVC038
18/18 A2992 RMK AO2 P0002 T01830178





000
SAUS45 KTWC 180752
MTRSAD
METAR KSAD 180751Z AUTO 15010KT 4SM -RA BR BKN036 BKN043 OVC060
19/18 A2992 RMK AO2 RAB03 SLP090 P0001 T01890178





000
SAUS45 KTWC 180652
MTRSAD
METAR KSAD 180651Z AUTO 15008KT 10SM BKN042 BKN049 OVC060 20/18
A2993 RMK AO2 RAB12E24 SLP091 P0000 T02000178 402610194





000
SAUS45 KTWC 180552
MTRSAD
METAR KSAD 180551Z AUTO 11010KT 10SM BKN045 OVC060 21/17 A2993 RMK
AO2 SLP089 60009 T02110167 10217 20200 58001





000
SAUS45 KTWC 180452
MTRSAD
METAR KSAD 180451Z AUTO 15008KT 10SM BKN044 OVC060 21/18 A2993 RMK
AO2 SLP094 T02060178





000
SAUS45 KTWC 180352
MTRSAD
METAR KSAD 180351Z AUTO 09010KT 10SM BKN055 22/16 A2992 RMK AO2
SLP090 T02170161





000
SAUS45 KTWC 180253
MTRSAD
METAR KSAD 180251Z AUTO 08009KT 10SM SCT050 OVC080 21/17 A2993 RMK
AO2 RAB04E31 SLP092 P0000 60009 T02110172 53006





    US Dept of Commerce
    National Oceanic and Atmospheric Administration
    National Weather Service
    1325 East West Highway
    Silver Spring, MD 20910
    Page Author: NWS Internet Services Team
Disclaimer
Information Quality
Credits
Glossary
Privacy Policy
Freedom of Information Act (FOIA)
About Us
Career Opportunities